createdAt,value
2016-03-20T00:00:04.773Z,0
2016-03-20T00:01:04.776Z,0
2016-03-20T00:02:04.795Z,0
2016-03-20T00:03:04.813Z,0
2016-03-20T00:04:04.831Z,0
2016-03-20T00:05:04.850Z,0
2016-03-20T00:06:04.867Z,0
2016-03-20T00:07:04.902Z,0
2016-03-20T00:08:04.904Z,0
2016-03-20T00:09:04.922Z,0
2016-03-20T00:10:04.941Z,0
2016-03-20T00:11:04.959Z,0
2016-03-20T00:12:04.961Z,0
2016-03-20T00:13:04.980Z,0
2016-03-20T00:14:04.998Z,0
2016-03-20T00:15:05.017Z,0
2016-03-20T00:16:05.082Z,0
2016-03-20T00:17:05.069Z,0
2016-03-20T00:18:05.071Z,0
2016-03-20T00:19:05.091Z,0
2016-03-20T00:20:05.093Z,0
2016-03-20T00:21:05.127Z,0
2016-03-20T00:22:05.145Z,0
2016-03-20T00:23:05.148Z,0
2016-03-20T00:24:05.181Z,0
2016-03-20T00:25:05.200Z,0
2016-03-20T00:26:05.218Z,0
2016-03-20T00:27:05.237Z,0
2016-03-20T00:28:05.254Z,0
2016-03-20T00:29:05.257Z,0
2016-03-20T00:30:05.276Z,0
2016-03-20T00:31:05.294Z,0
2016-03-20T00:32:05.297Z,0
2016-03-20T00:33:05.331Z,0
2016-03-20T00:34:05.333Z,0
2016-03-20T00:35:05.367Z,0
2016-03-20T00:36:05.386Z,0
2016-03-20T00:37:05.420Z,0
2016-03-20T00:38:05.422Z,0
2016-03-20T00:39:05.425Z,0
2016-03-20T00:40:05.444Z,0
2016-03-20T00:41:05.447Z,0
2016-03-20T00:42:05.324Z,0
2016-03-20T00:43:05.499Z,0
2016-03-20T00:44:05.516Z,0
2016-03-20T00:45:05.535Z,0
2016-03-20T00:46:05.600Z,0
2016-03-20T00:47:05.555Z,0
2016-03-20T00:48:05.591Z,0
2016-03-20T00:49:05.608Z,0
2016-03-20T00:50:05.627Z,0
2016-03-20T00:51:05.645Z,0
2016-03-20T00:52:05.663Z,0
2016-03-20T00:53:05.665Z,0
2016-03-20T00:54:05.684Z,0
2016-03-20T00:55:05.702Z,0
2016-03-20T00:56:05.721Z,0
2016-03-20T00:57:05.723Z,0
2016-03-20T00:58:05.742Z,0
2016-03-20T00:59:05.760Z,0
2016-03-20T01:00:05.779Z,0
2016-03-20T01:01:05.922Z,0
2016-03-20T01:02:05.815Z,0
2016-03-20T01:03:05.865Z,0
2016-03-20T01:04:05.867Z,0
2016-03-20T01:05:05.870Z,0
2016-03-20T01:06:05.889Z,0
2016-03-20T01:07:05.892Z,0
2016-03-20T01:08:05.925Z,0
2016-03-20T01:09:05.943Z,0
2016-03-20T01:10:05.962Z,0
2016-03-20T01:11:05.964Z,0
2016-03-20T01:12:05.983Z,0
2016-03-20T01:13:06.016Z,0
2016-03-20T01:14:06.035Z,0
2016-03-20T01:15:06.069Z,0
2016-03-20T01:16:06.383Z,0
2016-03-20T01:17:06.074Z,0
2016-03-20T01:18:05.389Z,0
2016-03-20T01:19:09.127Z,0
2016-03-20T01:20:06.129Z,0
2016-03-20T01:21:06.147Z,0
2016-03-20T01:22:06.149Z,0
2016-03-20T01:23:06.168Z,0
2016-03-20T01:24:06.202Z,0
2016-03-20T01:25:06.221Z,0
2016-03-20T01:26:06.240Z,0
2016-03-20T01:27:06.257Z,0
2016-03-20T01:28:06.260Z,0
2016-03-20T01:29:06.279Z,0
2016-03-20T01:30:06.313Z,0
2016-03-20T01:31:06.237Z,0
2016-03-20T01:32:06.349Z,0
2016-03-20T01:33:06.352Z,0
2016-03-20T01:34:09.432Z,0
2016-03-20T01:35:06.372Z,0
2016-03-20T01:36:06.406Z,0
2016-03-20T01:37:06.440Z,0
2016-03-20T01:38:06.443Z,0
2016-03-20T01:39:06.461Z,0
2016-03-20T01:40:06.465Z,0
2016-03-20T01:41:06.483Z,0
2016-03-20T01:42:06.533Z,0
2016-03-20T01:43:05.753Z,0
2016-03-20T01:44:06.569Z,0
2016-03-20T01:45:06.555Z,0
2016-03-20T01:46:06.589Z,0
2016-03-20T01:47:06.577Z,0
2016-03-20T01:48:06.610Z,0
2016-03-20T01:49:06.613Z,0
2016-03-20T01:50:06.663Z,0
2016-03-20T01:51:06.650Z,0
2016-03-20T01:52:06.669Z,0
2016-03-20T01:53:06.733Z,0
2016-03-20T01:54:06.549Z,0
2016-03-20T01:55:06.755Z,0
2016-03-20T01:56:06.741Z,0
2016-03-20T01:57:06.759Z,0
2016-03-20T01:58:06.841Z,0
2016-03-20T01:59:06.796Z,0
2016-03-20T02:00:06.815Z,0
2016-03-20T02:01:06.879Z,0
2016-03-20T02:02:06.836Z,0
2016-03-20T02:03:06.885Z,0
2016-03-20T02:04:06.873Z,0
2016-03-20T02:05:06.891Z,0
2016-03-20T02:06:06.956Z,0
2016-03-20T02:07:06.958Z,0
2016-03-20T02:08:06.977Z,0
2016-03-20T02:09:06.964Z,0
2016-03-20T02:10:06.998Z,0
2016-03-20T02:11:07.001Z,0
2016-03-20T02:12:07.020Z,0
2016-03-20T02:13:07.053Z,0
2016-03-20T02:14:07.025Z,0
2016-03-20T02:15:07.074Z,0
2016-03-20T02:16:07.092Z,0
2016-03-20T02:17:07.095Z,0
2016-03-20T02:18:06.972Z,0
2016-03-20T02:19:07.116Z,0
2016-03-20T02:20:07.149Z,0
2016-03-20T02:21:07.152Z,0
2016-03-20T02:22:07.186Z,0
2016-03-20T02:23:07.221Z,0
2016-03-20T02:24:07.208Z,0
2016-03-20T02:25:07.257Z,0
2016-03-20T02:26:07.244Z,0
2016-03-20T02:27:07.263Z,0
2016-03-20T02:28:07.296Z,0
2016-03-20T02:29:07.284Z,0
2016-03-20T02:30:07.318Z,0
2016-03-20T02:31:07.335Z,0
2016-03-20T02:32:07.354Z,0
2016-03-20T02:33:07.357Z,0
2016-03-20T02:34:07.390Z,0
2016-03-20T02:35:07.440Z,0
2016-03-20T02:36:07.412Z,0
2016-03-20T02:37:07.446Z,0
2016-03-20T02:38:07.448Z,0
2016-03-20T02:39:07.482Z,0
2016-03-20T02:40:07.501Z,0
2016-03-20T02:41:07.487Z,0
2016-03-20T02:42:07.522Z,0
2016-03-20T02:43:07.524Z,0
2016-03-20T02:44:07.542Z,0
2016-03-20T02:45:07.436Z,0
2016-03-20T02:46:07.579Z,0
2016-03-20T02:47:07.598Z,0
2016-03-20T02:48:07.616Z,0
2016-03-20T02:49:07.619Z,0
2016-03-20T02:50:07.511Z,0
2016-03-20T02:51:07.671Z,0
2016-03-20T02:52:07.689Z,0
2016-03-20T02:53:07.707Z,0
2016-03-20T02:54:07.741Z,0
2016-03-20T02:55:07.744Z,0
2016-03-20T02:56:07.747Z,0
2016-03-20T02:57:07.765Z,0
2016-03-20T02:58:07.783Z,0
2016-03-20T02:59:07.801Z,0
2016-03-20T03:00:07.821Z,0
2016-03-20T03:01:07.838Z,0
2016-03-20T03:02:07.856Z,0
2016-03-20T03:03:07.860Z,0
2016-03-20T03:04:07.893Z,0
2016-03-20T03:05:07.912Z,0
2016-03-20T03:06:07.929Z,0
2016-03-20T03:07:07.924Z,0
2016-03-20T03:08:07.958Z,0
2016-03-20T03:09:07.976Z,0
2016-03-20T03:10:07.978Z,0
2016-03-20T03:11:08.013Z,0
2016-03-20T03:12:07.859Z,0
2016-03-20T03:13:08.033Z,0
2016-03-20T03:14:08.068Z,0
2016-03-20T03:15:08.086Z,0
2016-03-20T03:16:08.088Z,0
2016-03-20T03:17:08.107Z,0
2016-03-20T03:18:08.125Z,0
2016-03-20T03:19:08.143Z,0
2016-03-20T03:20:08.162Z,0
2016-03-20T03:21:08.196Z,0
2016-03-20T03:22:08.229Z,0
2016-03-20T03:23:08.232Z,0
2016-03-20T03:24:08.220Z,0
2016-03-20T03:25:08.237Z,0
2016-03-20T03:26:08.257Z,0
2016-03-20T03:27:08.274Z,0
2016-03-20T03:28:08.277Z,0
2016-03-20T03:29:08.295Z,0
2016-03-20T03:30:08.329Z,0
2016-03-20T03:31:08.347Z,0
2016-03-20T03:32:08.367Z,0
2016-03-20T03:33:08.369Z,0
2016-03-20T03:34:08.403Z,0
2016-03-20T03:35:08.405Z,0
2016-03-20T03:36:08.408Z,0
2016-03-20T03:37:08.442Z,0
2016-03-20T03:38:08.461Z,0
2016-03-20T03:39:08.478Z,0
2016-03-20T03:40:08.496Z,0
2016-03-20T03:41:08.375Z,0
2016-03-20T03:42:08.533Z,0
2016-03-20T03:43:08.552Z,0
2016-03-20T03:44:08.585Z,0
2016-03-20T03:45:08.572Z,0
2016-03-20T03:46:08.575Z,0
2016-03-20T03:47:08.610Z,0
2016-03-20T03:48:08.674Z,0
2016-03-20T03:49:08.630Z,0
2016-03-20T03:50:08.665Z,0
2016-03-20T03:51:08.667Z,0
2016-03-20T03:52:08.702Z,0
2016-03-20T03:53:08.704Z,0
2016-03-20T03:54:08.722Z,0
2016-03-20T03:55:08.740Z,0
2016-03-20T03:56:08.743Z,0
2016-03-20T03:57:08.809Z,0
2016-03-20T03:58:08.779Z,0
2016-03-20T03:59:08.814Z,0
2016-03-20T04:00:08.831Z,0
2016-03-20T04:01:08.835Z,0
2016-03-20T04:02:08.853Z,0
2016-03-20T04:03:08.923Z,0
2016-03-20T04:04:08.878Z,0
2016-03-20T04:05:08.913Z,0
2016-03-20T04:06:08.916Z,0
2016-03-20T04:07:08.965Z,0
2016-03-20T04:08:08.968Z,0
2016-03-20T04:09:08.970Z,0
2016-03-20T04:10:09.004Z,0
2016-03-20T04:11:08.992Z,0
2016-03-20T04:12:09.010Z,0
2016-03-20T04:13:09.059Z,0
2016-03-20T04:14:09.047Z,0
2016-03-20T04:15:09.080Z,0
2016-03-20T04:16:09.082Z,0
2016-03-20T04:17:09.101Z,0
2016-03-20T04:18:09.166Z,0
2016-03-20T04:19:09.122Z,0
2016-03-20T04:20:09.172Z,0
2016-03-20T04:21:09.159Z,0
2016-03-20T04:22:09.192Z,0
2016-03-20T04:23:09.227Z,0
2016-03-20T04:24:09.214Z,0
2016-03-20T04:25:09.231Z,0
2016-03-20T04:26:09.267Z,0
2016-03-20T04:27:09.259Z,0
2016-03-20T04:28:08.545Z,0
2016-03-20T04:29:09.254Z,0
2016-03-20T04:30:09.291Z,0
2016-03-20T04:31:09.265Z,0
2016-03-20T04:32:09.293Z,0
2016-03-20T04:33:09.291Z,0
2016-03-20T04:34:08.555Z,0
2016-03-20T04:35:09.366Z,0
2016-03-20T04:36:09.333Z,0
2016-03-20T04:37:09.365Z,0
2016-03-20T04:38:09.397Z,0
2016-03-20T04:39:09.382Z,0
2016-03-20T04:40:09.430Z,0
2016-03-20T04:41:09.416Z,0
2016-03-20T04:42:09.433Z,0
2016-03-20T04:43:09.467Z,0
2016-03-20T04:44:09.453Z,0
2016-03-20T04:45:09.485Z,0
2016-03-20T04:46:09.534Z,0
2016-03-20T04:47:09.506Z,0
2016-03-20T04:48:08.790Z,0
2016-03-20T04:49:09.526Z,0
2016-03-20T04:50:09.420Z,0
2016-03-20T04:51:08.829Z,0
2016-03-20T04:52:09.581Z,0
2016-03-20T04:53:09.631Z,0
2016-03-20T04:54:09.619Z,0
2016-03-20T04:55:09.636Z,0
2016-03-20T04:56:09.656Z,0
2016-03-20T04:57:09.673Z,0
2016-03-20T04:58:09.722Z,0
2016-03-20T04:59:09.695Z,0
2016-03-20T05:00:09.728Z,0
2016-03-20T05:01:09.762Z,0
2016-03-20T05:02:09.750Z,0
2016-03-20T05:03:09.939Z,0
2016-03-20T05:04:09.630Z,0
2016-03-20T05:05:09.664Z,0
2016-03-20T05:06:09.854Z,0
2016-03-20T05:07:09.840Z,0
2016-03-20T05:08:09.703Z,0
2016-03-20T05:09:09.893Z,0
2016-03-20T05:10:09.879Z,0
2016-03-20T05:11:09.915Z,0
2016-03-20T05:12:09.917Z,0
2016-03-20T05:13:09.951Z,0
2016-03-20T05:14:10.001Z,0
2016-03-20T05:15:09.956Z,0
2016-03-20T05:16:10.021Z,0
2016-03-20T05:17:09.993Z,0
2016-03-20T05:18:10.026Z,0
2016-03-20T05:19:10.045Z,0
2016-03-20T05:20:10.048Z,0
2016-03-20T05:21:10.082Z,0
2016-03-20T05:22:10.084Z,0
2016-03-20T05:23:10.103Z,0
2016-03-20T05:24:10.137Z,0
2016-03-20T05:25:10.123Z,0
2016-03-20T05:26:10.158Z,0
2016-03-20T05:27:10.160Z,0
2016-03-20T05:28:10.178Z,0
2016-03-20T05:29:10.212Z,0
2016-03-20T05:30:10.216Z,0
2016-03-20T05:31:10.218Z,0
2016-03-20T05:32:10.236Z,0
2016-03-20T05:33:10.270Z,0
2016-03-20T05:34:10.288Z,0
2016-03-20T05:35:10.307Z,0
2016-03-20T05:36:10.341Z,0
2016-03-20T05:37:10.327Z,0
2016-03-20T05:38:10.346Z,0
2016-03-20T05:39:10.380Z,0
2016-03-20T05:40:10.367Z,0
2016-03-20T05:41:10.402Z,0
2016-03-20T05:42:10.404Z,0
2016-03-20T05:43:10.421Z,0
2016-03-20T05:44:10.472Z,0
2016-03-20T05:45:10.459Z,0
2016-03-20T05:46:10.476Z,0
2016-03-20T05:47:10.526Z,0
2016-03-20T05:48:10.498Z,0
2016-03-20T05:49:10.548Z,0
2016-03-20T05:50:10.535Z,0
2016-03-20T05:51:10.600Z,0
2016-03-20T05:52:10.571Z,0
2016-03-20T05:53:10.606Z,0
2016-03-20T05:54:10.639Z,0
2016-03-20T05:55:10.625Z,0
2016-03-20T05:56:10.660Z,0
2016-03-20T05:57:10.647Z,0
2016-03-20T05:58:10.666Z,0
2016-03-20T05:59:10.715Z,0
2016-03-20T06:00:10.717Z,0
2016-03-20T06:01:10.580Z,0
2016-03-20T06:02:10.770Z,0
2016-03-20T06:03:10.772Z,0
2016-03-20T06:04:10.791Z,0
2016-03-20T06:05:10.621Z,0
2016-03-20T06:06:10.828Z,0
2016-03-20T06:07:10.846Z,0
2016-03-20T06:08:10.849Z,0
2016-03-20T06:09:10.899Z,0
2016-03-20T06:10:10.916Z,0
2016-03-20T06:11:10.904Z,0
2016-03-20T06:12:10.906Z,0
2016-03-20T06:13:10.940Z,0
2016-03-20T06:14:10.958Z,0
2016-03-20T06:15:11.368Z,0
2016-03-20T06:16:10.979Z,0
2016-03-20T06:17:10.857Z,0
2016-03-20T06:18:11.016Z,0
2016-03-20T06:19:11.050Z,0
2016-03-20T06:20:11.053Z,0
2016-03-20T06:21:11.071Z,0
2016-03-20T06:22:11.073Z,0
2016-03-20T06:23:11.108Z,0
2016-03-20T06:24:11.156Z,0
2016-03-20T06:25:11.113Z,0
2016-03-20T06:26:11.162Z,0
2016-03-20T06:27:11.181Z,0
2016-03-20T06:28:11.167Z,0
2016-03-20T06:29:11.233Z,0
2016-03-20T06:30:11.220Z,0
2016-03-20T06:31:11.223Z,0
2016-03-20T06:32:11.226Z,0
2016-03-20T06:33:11.275Z,0
2016-03-20T06:34:11.309Z,0
2016-03-20T06:35:11.297Z,0
2016-03-20T06:36:11.314Z,0
2016-03-20T06:37:11.332Z,0
2016-03-20T06:38:11.335Z,0
2016-03-20T06:39:11.369Z,0
2016-03-20T06:40:11.419Z,0
2016-03-20T06:41:11.390Z,0
2016-03-20T06:42:11.424Z,0
2016-03-20T06:43:11.396Z,5
2016-03-20T06:44:11.446Z,5
2016-03-20T06:45:11.463Z,5
2016-03-20T06:46:11.498Z,5
2016-03-20T06:47:11.532Z,5
2016-03-20T06:48:11.504Z,5
2016-03-20T06:49:11.506Z,5
2016-03-20T06:50:11.523Z,5
2016-03-20T06:51:11.574Z,5
2016-03-20T06:52:11.561Z,5
2016-03-20T06:53:11.579Z,5
2016-03-20T06:54:11.629Z,5
2016-03-20T06:55:11.615Z,5
2016-03-20T06:56:11.634Z,5
2016-03-20T06:57:11.637Z,5
2016-03-20T06:58:11.702Z,5
2016-03-20T06:59:11.705Z,5
2016-03-20T07:00:11.692Z,5
2016-03-20T07:01:11.725Z,5
2016-03-20T07:02:11.791Z,5
2016-03-20T07:03:11.762Z,5
2016-03-20T07:04:11.764Z,5
2016-03-20T07:05:11.799Z,5
2016-03-20T07:06:11.817Z,5
2016-03-20T07:07:11.819Z,5
2016-03-20T07:08:11.838Z,5
2016-03-20T07:09:11.857Z,5
2016-03-20T07:10:11.859Z,5
2016-03-20T07:11:11.894Z,5
2016-03-20T07:12:11.896Z,5
2016-03-20T07:13:11.914Z,5
2016-03-20T07:14:11.948Z,5
2016-03-20T07:15:11.935Z,5
2016-03-20T07:16:11.985Z,5
2016-03-20T07:17:11.971Z,5
2016-03-20T07:18:12.021Z,5
2016-03-20T07:19:12.023Z,5
2016-03-20T07:20:12.027Z,5
2016-03-20T07:21:12.076Z,5
2016-03-20T07:22:12.063Z,5
2016-03-20T07:23:12.081Z,5
2016-03-20T07:24:12.115Z,5
2016-03-20T07:25:12.103Z,5
2016-03-20T07:26:12.152Z,5
2016-03-20T07:27:12.139Z,5
2016-03-20T07:28:12.173Z,5
2016-03-20T07:29:12.222Z,5
2016-03-20T07:30:12.209Z,5
2016-03-20T07:31:12.212Z,5
2016-03-20T07:32:12.261Z,5
2016-03-20T07:33:12.234Z,5
2016-03-20T07:34:12.299Z,5
2016-03-20T07:35:12.269Z,5
2016-03-20T07:36:12.305Z,5
2016-03-20T07:37:12.307Z,5
2016-03-20T07:38:12.327Z,5
2016-03-20T07:39:12.347Z,5
2016-03-20T07:40:12.380Z,5
2016-03-20T07:41:12.398Z,5
2016-03-20T07:42:12.464Z,5
2016-03-20T07:43:12.419Z,5
2016-03-20T07:44:12.422Z,5
2016-03-20T07:45:12.456Z,5
2016-03-20T07:46:12.490Z,10
2016-03-20T07:47:12.477Z,10
2016-03-20T07:48:12.496Z,10
2016-03-20T07:49:12.513Z,15
2016-03-20T07:50:12.532Z,15
2016-03-20T07:51:12.566Z,15
2016-03-20T07:52:12.568Z,15
2016-03-20T07:53:12.588Z,15
2016-03-20T07:54:12.621Z,15
2016-03-20T07:55:12.451Z,15
2016-03-20T07:56:12.627Z,10
2016-03-20T07:57:12.645Z,10
2016-03-20T07:58:12.663Z,10
2016-03-20T07:59:12.743Z,15
2016-03-20T08:00:12.700Z,15
2016-03-20T08:01:12.717Z,15
2016-03-20T08:02:12.737Z,10
2016-03-20T08:03:12.754Z,10
2016-03-20T08:04:12.819Z,10
2016-03-20T08:05:12.776Z,10
2016-03-20T08:06:12.841Z,10
2016-03-20T08:07:12.812Z,10
2016-03-20T08:08:12.830Z,10
2016-03-20T08:09:12.864Z,10
2016-03-20T08:10:12.867Z,10
2016-03-20T08:11:12.869Z,15
2016-03-20T08:12:12.919Z,15
2016-03-20T08:13:12.906Z,10
2016-03-20T08:14:12.941Z,15
2016-03-20T08:15:12.943Z,15
2016-03-20T08:16:12.993Z,10
2016-03-20T08:17:12.979Z,10
2016-03-20T08:18:12.998Z,10
2016-03-20T08:19:13.016Z,10
2016-03-20T08:20:13.035Z,10
2016-03-20T08:21:13.068Z,10
2016-03-20T08:22:13.071Z,10
2016-03-20T08:23:13.105Z,10
2016-03-20T08:24:13.107Z,15
2016-03-20T08:25:13.142Z,10
2016-03-20T08:26:13.129Z,10
2016-03-20T08:27:13.147Z,10
2016-03-20T08:28:13.166Z,10
2016-03-20T08:29:13.184Z,15
2016-03-20T08:30:13.218Z,15
2016-03-20T08:31:13.220Z,10
2016-03-20T08:32:13.239Z,15
2016-03-20T08:33:13.273Z,15
2016-03-20T08:34:13.712Z,10
2016-03-20T08:35:13.387Z,10
2016-03-20T08:36:13.312Z,10
2016-03-20T08:37:13.331Z,15
2016-03-20T08:38:13.348Z,15
2016-03-20T08:39:13.367Z,15
2016-03-20T08:40:13.386Z,10
2016-03-20T08:41:13.450Z,10
2016-03-20T08:42:13.422Z,10
2016-03-20T08:43:13.440Z,10
2016-03-20T08:44:13.443Z,10
2016-03-20T08:45:13.477Z,10
2016-03-20T08:46:13.480Z,10
2016-03-20T08:47:13.513Z,10
2016-03-20T08:48:13.516Z,10
2016-03-20T08:49:13.550Z,10
2016-03-20T08:50:13.537Z,10
2016-03-20T08:51:13.587Z,5
2016-03-20T08:52:13.590Z,10
2016-03-20T08:53:13.623Z,10
2016-03-20T08:54:13.610Z,10
2016-03-20T08:55:13.629Z,15
2016-03-20T08:56:13.663Z,15
2016-03-20T08:57:13.665Z,25
2016-03-20T08:58:13.699Z,20
2016-03-20T08:59:13.702Z,15
2016-03-20T09:00:13.720Z,15
2016-03-20T09:01:13.754Z,15
2016-03-20T09:02:13.741Z,15
2016-03-20T09:03:13.776Z,15
2016-03-20T09:04:13.778Z,10
2016-03-20T09:05:13.811Z,10
2016-03-20T09:06:13.845Z,10
2016-03-20T09:07:13.833Z,10
2016-03-20T09:08:13.867Z,15
2016-03-20T09:09:13.885Z,15
2016-03-20T09:10:13.872Z,15
2016-03-20T09:11:13.922Z,15
2016-03-20T09:12:13.909Z,15
2016-03-20T09:13:13.927Z,15
2016-03-20T09:14:13.961Z,15
2016-03-20T09:15:13.964Z,15
2016-03-20T09:16:14.013Z,15
2016-03-20T09:17:14.000Z,15
2016-03-20T09:18:14.035Z,15
2016-03-20T09:19:14.068Z,20
2016-03-20T09:20:13.899Z,15
2016-03-20T09:21:14.089Z,15
2016-03-20T09:22:14.091Z,15
2016-03-20T09:23:14.126Z,15
2016-03-20T09:24:14.129Z,20
2016-03-20T09:25:14.146Z,20
2016-03-20T09:26:14.181Z,20
2016-03-20T09:27:14.168Z,20
2016-03-20T09:28:14.201Z,20
2016-03-20T09:29:14.236Z,20
2016-03-20T09:30:14.207Z,20
2016-03-20T09:31:14.272Z,20
2016-03-20T09:32:14.260Z,20
2016-03-20T09:33:14.293Z,20
2016-03-20T09:34:14.342Z,15
2016-03-20T09:35:14.314Z,15
2016-03-20T09:36:14.348Z,20
2016-03-20T09:37:14.351Z,25
2016-03-20T09:38:14.370Z,25
2016-03-20T09:39:14.419Z,25
2016-03-20T09:40:14.390Z,30
2016-03-20T09:41:14.440Z,30
2016-03-20T09:42:14.427Z,30
2016-03-20T09:43:14.476Z,30
2016-03-20T09:44:14.480Z,25
2016-03-20T09:45:14.482Z,20
2016-03-20T09:46:14.500Z,20
2016-03-20T09:47:14.550Z,20
2016-03-20T09:48:14.536Z,15
2016-03-20T09:49:14.555Z,15
2016-03-20T09:50:14.589Z,15
2016-03-20T09:51:14.592Z,10
2016-03-20T09:52:14.626Z,15
2016-03-20T09:53:14.660Z,15
2016-03-20T09:54:14.647Z,15
2016-03-20T09:55:14.696Z,10
2016-03-20T09:56:14.668Z,15
2016-03-20T09:57:14.733Z,15
2016-03-20T09:58:14.720Z,20
2016-03-20T09:59:14.941Z,25
2016-03-20T10:00:14.756Z,25
2016-03-20T10:01:14.759Z,30
2016-03-20T10:02:14.809Z,35
2016-03-20T10:03:14.812Z,35
2016-03-20T10:04:14.814Z,30
2016-03-20T10:05:14.848Z,35
2016-03-20T10:06:14.851Z,35
2016-03-20T10:07:14.869Z,35
2016-03-20T10:08:14.887Z,35
2016-03-20T10:09:14.921Z,30
2016-03-20T10:10:14.940Z,30
2016-03-20T10:11:14.958Z,30
2016-03-20T10:12:14.992Z,25
2016-03-20T10:13:14.995Z,25
2016-03-20T10:14:14.997Z,25
2016-03-20T10:15:15.016Z,20
2016-03-20T10:16:15.033Z,20
2016-03-20T10:17:15.036Z,20
2016-03-20T10:18:15.086Z,25
2016-03-20T10:19:15.104Z,30
2016-03-20T10:20:15.123Z,35
2016-03-20T10:21:15.125Z,35
2016-03-20T10:22:15.144Z,35
2016-03-20T10:23:15.147Z,30
2016-03-20T10:24:15.165Z,30
2016-03-20T10:25:15.199Z,30
2016-03-20T10:26:15.202Z,25
2016-03-20T10:27:15.220Z,25
2016-03-20T10:28:15.238Z,25
2016-03-20T10:29:15.101Z,25
2016-03-20T10:30:15.291Z,20
2016-03-20T10:31:15.309Z,20
2016-03-20T10:32:15.327Z,20
2016-03-20T10:33:15.346Z,20
2016-03-20T10:34:15.364Z,20
2016-03-20T10:35:15.367Z,20
2016-03-20T10:36:15.384Z,20
2016-03-20T10:37:15.419Z,20
2016-03-20T10:38:15.421Z,30
2016-03-20T10:39:15.439Z,25
2016-03-20T10:40:15.458Z,25
2016-03-20T10:41:15.476Z,20
2016-03-20T10:42:15.510Z,20
2016-03-20T10:43:15.528Z,20
2016-03-20T10:44:15.547Z,20
2016-03-20T10:45:15.565Z,20
2016-03-20T10:46:15.567Z,20
2016-03-20T10:47:15.586Z,15
2016-03-20T10:48:15.605Z,20
2016-03-20T10:49:15.622Z,25
2016-03-20T10:50:15.641Z,25
2016-03-20T10:51:15.660Z,25
2016-03-20T10:52:15.693Z,30
2016-03-20T10:53:15.712Z,30
2016-03-20T10:54:15.714Z,25
2016-03-20T10:55:15.732Z,20
2016-03-20T10:56:15.751Z,25
2016-03-20T10:57:15.769Z,20
2016-03-20T10:58:15.787Z,20
2016-03-20T10:59:15.790Z,15
2016-03-20T11:00:15.824Z,15
2016-03-20T11:01:15.843Z,20
2016-03-20T11:02:15.845Z,25
2016-03-20T11:03:15.895Z,25
2016-03-20T11:04:15.882Z,30
2016-03-20T11:05:15.900Z,30
2016-03-20T11:06:15.950Z,30
2016-03-20T11:07:15.952Z,30
2016-03-20T11:08:15.970Z,30
2016-03-20T11:09:16.005Z,25
2016-03-20T11:10:16.007Z,25
2016-03-20T11:11:16.025Z,25
2016-03-20T11:12:16.028Z,25
2016-03-20T11:13:16.062Z,25
2016-03-20T11:14:15.330Z,25
2016-03-20T11:15:16.083Z,20
2016-03-20T11:16:16.102Z,20
2016-03-20T11:17:16.136Z,25
2016-03-20T11:18:16.153Z,30
2016-03-20T11:19:16.156Z,30
2016-03-20T11:20:16.222Z,40
2016-03-20T11:21:16.193Z,40
2016-03-20T11:22:16.211Z,35
2016-03-20T11:23:16.230Z,35
2016-03-20T11:24:16.248Z,35
2016-03-20T11:25:16.283Z,35
2016-03-20T11:26:16.285Z,35
2016-03-20T11:27:16.335Z,40
2016-03-20T11:28:16.368Z,35
2016-03-20T11:29:16.340Z,35
2016-03-20T11:30:16.358Z,35
2016-03-20T11:31:16.376Z,40
2016-03-20T11:32:16.395Z,40
2016-03-20T11:33:16.507Z,40
2016-03-20T11:34:16.432Z,45
2016-03-20T11:35:16.481Z,40
2016-03-20T11:36:16.670Z,40
2016-03-20T11:37:16.502Z,40
2016-03-20T11:38:16.567Z,35
2016-03-20T11:39:16.506Z,40
2016-03-20T11:40:16.572Z,40
2016-03-20T11:41:21.075Z,45
2016-03-20T11:42:16.593Z,45
2016-03-20T11:43:16.612Z,45
2016-03-20T11:44:16.615Z,45
2016-03-20T11:45:16.476Z,45
2016-03-20T11:46:16.682Z,40
2016-03-20T11:47:16.669Z,40
2016-03-20T11:48:16.703Z,35
2016-03-20T11:49:33.472Z,45
2016-03-20T11:50:16.739Z,45
2016-03-20T11:51:16.742Z,40
2016-03-20T11:52:16.808Z,35
2016-03-20T11:53:16.794Z,35
2016-03-20T11:54:16.922Z,35
2016-03-20T11:55:16.956Z,35
2016-03-20T11:56:16.849Z,35
2016-03-20T11:57:16.883Z,35
2016-03-20T11:58:16.871Z,25
2016-03-20T11:59:16.905Z,30
2016-03-20T12:00:16.955Z,35
2016-03-20T12:01:16.941Z,40
2016-03-20T12:02:16.960Z,40
2016-03-20T12:03:17.010Z,30
2016-03-20T12:04:16.996Z,35
2016-03-20T12:05:16.998Z,30
2016-03-20T12:06:17.017Z,40
2016-03-20T12:07:17.082Z,35
2016-03-20T12:08:17.069Z,35
2016-03-20T12:09:17.104Z,25
2016-03-20T12:10:17.137Z,20
2016-03-20T12:11:17.140Z,25
2016-03-20T12:12:17.159Z,20
2016-03-20T12:13:17.177Z,25
2016-03-20T12:14:17.179Z,20
2016-03-20T12:15:17.228Z,25
2016-03-20T12:16:17.216Z,30
2016-03-20T12:17:17.250Z,35
2016-03-20T12:18:17.221Z,25
2016-03-20T12:19:17.271Z,20
2016-03-20T12:20:17.336Z,25
2016-03-20T12:21:17.308Z,25
2016-03-20T12:22:17.357Z,20
2016-03-20T12:23:17.344Z,25
2016-03-20T12:24:17.378Z,20
2016-03-20T12:25:17.427Z,25
2016-03-20T12:26:17.416Z,20
2016-03-20T12:27:17.433Z,15
2016-03-20T12:28:17.466Z,15
2016-03-20T12:29:17.470Z,15
2016-03-20T12:30:17.535Z,15
2016-03-20T12:31:17.506Z,15
2016-03-20T12:32:17.525Z,20
2016-03-20T12:33:17.434Z,25
2016-03-20T12:34:17.562Z,25
2016-03-20T12:35:17.596Z,20
2016-03-20T12:36:17.598Z,15
2016-03-20T12:37:17.616Z,15
2016-03-20T12:38:17.682Z,15
2016-03-20T12:39:17.653Z,15
2016-03-20T12:40:17.687Z,15
2016-03-20T12:41:17.721Z,15
2016-03-20T12:42:17.724Z,15
2016-03-20T12:43:17.601Z,20
2016-03-20T12:44:17.775Z,15
2016-03-20T12:45:17.794Z,20
2016-03-20T12:46:17.781Z,20
2016-03-20T12:47:17.831Z,20
2016-03-20T12:48:17.912Z,20
2016-03-20T12:49:17.852Z,30
2016-03-20T12:50:17.917Z,30
2016-03-20T12:51:17.904Z,30
2016-03-20T12:52:17.922Z,30
2016-03-20T12:53:17.925Z,35
2016-03-20T12:54:17.944Z,35
2016-03-20T12:55:17.977Z,35
2016-03-20T12:56:17.980Z,30
2016-03-20T12:57:18.013Z,30
2016-03-20T12:58:18.047Z,35
2016-03-20T12:59:18.050Z,40
2016-03-20T13:00:18.084Z,30
2016-03-20T13:01:18.071Z,45
2016-03-20T13:02:18.105Z,50
2016-03-20T13:03:18.155Z,45
2016-03-20T13:04:18.142Z,40
2016-03-20T13:05:18.332Z,40
2016-03-20T13:06:18.179Z,40
2016-03-20T13:07:18.228Z,35
2016-03-20T13:08:18.200Z,35
2016-03-20T13:09:18.249Z,40
2016-03-20T13:10:18.252Z,45
2016-03-20T13:11:18.270Z,40
2016-03-20T13:12:18.320Z,40
2016-03-20T13:13:18.307Z,40
2016-03-20T13:14:18.340Z,40
2016-03-20T13:15:18.343Z,35
2016-03-20T13:16:18.378Z,30
2016-03-20T13:17:18.396Z,35
2016-03-20T13:18:18.180Z,35
2016-03-20T13:19:18.433Z,35
2016-03-20T13:20:18.451Z,30
2016-03-20T13:21:18.469Z,30
2016-03-20T13:22:18.534Z,25
2016-03-20T13:23:18.506Z,20
2016-03-20T13:24:18.556Z,25
2016-03-20T13:25:18.558Z,20
2016-03-20T13:26:18.577Z,20
2016-03-20T13:27:18.750Z,15
2016-03-20T13:28:18.441Z,15
2016-03-20T13:29:18.647Z,15
2016-03-20T13:30:18.634Z,15
2016-03-20T13:31:18.684Z,10
2016-03-20T13:32:18.672Z,15
2016-03-20T13:33:18.754Z,10
2016-03-20T13:34:18.696Z,10
2016-03-20T13:35:18.526Z,10
2016-03-20T13:36:18.717Z,10
2016-03-20T13:37:18.722Z,10
2016-03-20T13:38:18.719Z,15
2016-03-20T13:39:18.732Z,15
2016-03-20T13:40:18.745Z,15
2016-03-20T13:41:18.805Z,15
2016-03-20T13:42:18.802Z,10
2016-03-20T13:43:18.803Z,10
2016-03-20T13:44:18.851Z,10
2016-03-20T13:45:18.820Z,10
2016-03-20T13:46:18.853Z,10
2016-03-20T13:47:18.884Z,10
2016-03-20T13:48:18.933Z,10
2016-03-20T13:49:18.918Z,10
2016-03-20T13:50:18.920Z,10
2016-03-20T13:51:18.953Z,10
2016-03-20T13:52:18.955Z,10
2016-03-20T13:53:18.830Z,10
2016-03-20T13:54:19.005Z,10
2016-03-20T13:55:19.024Z,15
2016-03-20T13:56:19.026Z,20
2016-03-20T13:57:19.059Z,35
2016-03-20T13:58:19.061Z,30
2016-03-20T13:59:19.095Z,30
2016-03-20T14:00:19.097Z,35
2016-03-20T14:01:19.116Z,30
2016-03-20T14:02:19.150Z,25
2016-03-20T14:03:19.263Z,25
2016-03-20T14:04:19.188Z,20
2016-03-20T14:05:19.191Z,30
2016-03-20T14:06:19.208Z,30
2016-03-20T14:07:19.227Z,25
2016-03-20T14:08:19.260Z,30
2016-03-20T14:09:19.279Z,25
2016-03-20T14:10:19.297Z,20
2016-03-20T14:11:19.315Z,20
2016-03-20T14:12:19.334Z,20
2016-03-20T14:13:19.367Z,20
2016-03-20T14:14:19.385Z,30
2016-03-20T14:15:19.404Z,35
2016-03-20T14:16:19.437Z,30
2016-03-20T14:17:19.440Z,30
2016-03-20T14:18:19.350Z,25
2016-03-20T14:19:19.478Z,25
2016-03-20T14:20:19.496Z,30
2016-03-20T14:21:19.498Z,30
2016-03-20T14:22:19.517Z,25
2016-03-20T14:23:19.550Z,25
2016-03-20T14:24:19.569Z,30
2016-03-20T14:25:19.572Z,30
2016-03-20T14:26:19.605Z,25
2016-03-20T14:27:19.624Z,20
2016-03-20T14:28:19.641Z,15
2016-03-20T14:29:19.675Z,15
2016-03-20T14:30:19.694Z,10
2016-03-20T14:31:19.728Z,20
2016-03-20T14:32:19.730Z,25